createdAt,value
2023-05-07T00:01:44.118Z,96.31
2023-05-07T00:04:11.203Z,96.88
2023-05-07T00:06:37.892Z,97.11
2023-05-07T00:09:05.269Z,96.51
2023-05-07T00:11:31.845Z,95.77
2023-05-07T00:13:58.295Z,96.72
2023-05-07T00:16:24.797Z,98.07
2023-05-07T00:18:51.348Z,99.55
2023-05-07T00:21:17.892Z,99.74
2023-05-07T00:23:44.390Z,99.35
2023-05-07T00:26:10.893Z,100.00
2023-05-07T00:28:37.886Z,100.00
2023-05-07T00:31:04.424Z,100.00
2023-05-07T00:33:30.960Z,100.00
2023-05-07T00:35:57.455Z,100.00
2023-05-07T00:38:24.142Z,100.00
2023-05-07T00:40:51.626Z,100.00
2023-05-07T00:43:18.078Z,100.00
2023-05-07T00:45:44.663Z,100.00
2023-05-07T00:48:11.343Z,100.00
2023-05-07T00:50:37.910Z,100.00
2023-05-07T00:53:05.233Z,100.00
2023-05-07T00:55:31.764Z,100.00
2023-05-07T00:57:58.331Z,100.00
2023-05-07T01:00:26.193Z,100.00
2023-05-07T01:02:53.149Z,100.00
2023-05-07T01:05:21.180Z,97.37
2023-05-07T01:07:48.632Z,100.00
2023-05-07T01:10:15.537Z,100.00
2023-05-07T01:12:43.576Z,99.17
2023-05-07T01:15:10.772Z,96.86
2023-05-07T01:17:38.739Z,93.64
2023-05-07T01:20:08.415Z,95.70
2023-05-07T01:22:37.440Z,98.75
2023-05-07T01:25:04.709Z,95.82
2023-05-07T01:27:34.552Z,92.46
2023-05-07T01:30:01.318Z,94.57
2023-05-07T01:32:41.234Z,95.20
2023-05-07T01:35:09.307Z,95.61
2023-05-07T01:37:36.470Z,97.94
2023-05-07T01:40:03.888Z,99.25
2023-05-07T01:42:30.637Z,98.42
2023-05-07T01:44:57.289Z,97.64
2023-05-07T01:47:24.157Z,98.11
2023-05-07T01:49:51.008Z,98.24
2023-05-07T01:52:17.578Z,97.65
2023-05-07T01:54:44.072Z,98.03
2023-05-07T01:57:11.053Z,97.53
2023-05-07T01:59:38.174Z,97.71
2023-05-07T02:02:04.802Z,97.98
2023-05-07T02:04:32.815Z,97.43
2023-05-07T02:06:59.304Z,98.01
2023-05-07T02:09:26.113Z,99.22
2023-05-07T02:11:52.850Z,99.76
2023-05-07T02:14:21.604Z,98.86
2023-05-07T02:16:48.374Z,99.21
2023-05-07T02:19:16.021Z,98.60
2023-05-07T02:21:42.630Z,98.74
2023-05-07T02:24:09.664Z,99.79
2023-05-07T02:26:36.286Z,100.00
2023-05-07T02:29:03.052Z,100.00
2023-05-07T02:31:29.905Z,100.00
2023-05-07T02:33:56.532Z,100.00
2023-05-07T02:36:23.061Z,100.00
2023-05-07T02:38:58.738Z,100.00
2023-05-07T02:41:25.369Z,99.59
2023-05-07T02:43:51.845Z,99.38
2023-05-07T02:46:18.613Z,100.00
2023-05-07T02:48:49.337Z,100.00
2023-05-07T02:51:15.860Z,100.00
2023-05-07T02:53:43.274Z,100.00
2023-05-07T02:56:09.798Z,100.00
2023-05-07T02:58:36.505Z,100.00
2023-05-07T03:01:04.162Z,100.00
2023-05-07T03:03:36.005Z,100.00
2023-05-07T03:06:02.745Z,100.00
2023-05-07T03:08:29.277Z,100.00
2023-05-07T03:10:55.852Z,100.00
2023-05-07T03:13:22.682Z,100.00
2023-05-07T03:15:49.295Z,100.00
2023-05-07T03:18:16.015Z,100.00
2023-05-07T03:20:42.671Z,100.00
2023-05-07T03:23:09.244Z,99.96
2023-05-07T03:25:36.765Z,100.00
2023-05-07T03:28:03.345Z,100.00
2023-05-07T03:30:40.028Z,100.00
2023-05-07T03:33:06.660Z,100.00
2023-05-07T03:35:33.370Z,100.00
2023-05-07T03:38:01.127Z,99.77
2023-05-07T03:40:30.700Z,99.99
2023-05-07T03:42:57.209Z,100.00
2023-05-07T03:45:26.809Z,99.50
2023-05-07T03:48:05.035Z,99.68
2023-05-07T03:50:31.968Z,100.00
2023-05-07T03:52:58.451Z,100.00
2023-05-07T03:55:25.281Z,100.00
2023-05-07T03:57:57.570Z,100.00
2023-05-07T04:00:26.286Z,100.00
2023-05-07T04:02:52.783Z,100.00
2023-05-07T04:05:25.794Z,100.00
2023-05-07T04:08:01.216Z,100.00
2023-05-07T04:10:35.300Z,100.00
2023-05-07T04:13:06.095Z,100.00
2023-05-07T04:15:33.076Z,98.41
2023-05-07T04:17:59.835Z,100.00
2023-05-07T04:20:26.410Z,100.00
2023-05-07T04:22:59.420Z,100.00
2023-05-07T04:25:27.707Z,99.93
2023-05-07T04:27:59.646Z,100.00
2023-05-07T04:30:27.897Z,100.00
2023-05-07T04:32:54.393Z,100.00
2023-05-07T04:35:24.201Z,100.00
2023-05-07T04:37:51.436Z,100.00
2023-05-07T04:40:18.039Z,100.00
2023-05-07T04:42:44.945Z,100.00
2023-05-07T04:45:13.304Z,100.00
2023-05-07T04:47:41.615Z,100.00
2023-05-07T04:50:09.438Z,100.00
2023-05-07T04:52:36.896Z,100.00
2023-05-07T04:55:04.056Z,100.00
2023-05-07T04:57:35.424Z,99.32
2023-05-07T05:00:02.178Z,98.67
2023-05-07T05:02:31.855Z,98.29
2023-05-07T05:05:00.057Z,98.62
2023-05-07T05:07:26.551Z,99.38
2023-05-07T05:09:53.160Z,100.00
2023-05-07T05:12:20.376Z,98.32
2023-05-07T05:14:46.941Z,99.64
2023-05-07T05:17:14.060Z,99.21
2023-05-07T05:19:41.036Z,96.76
2023-05-07T05:22:07.688Z,96.69
2023-05-07T05:24:34.422Z,95.35
2023-05-07T05:27:02.311Z,93.87
2023-05-07T05:29:32.553Z,93.47
2023-05-07T05:31:59.349Z,93.24
2023-05-07T05:34:27.375Z,92.80
2023-05-07T05:36:54.201Z,92.63
2023-05-07T05:39:20.752Z,93.15
2023-05-07T05:41:47.531Z,93.90
2023-05-07T05:44:14.516Z,92.56
2023-05-07T05:46:42.607Z,91.68
2023-05-07T05:49:09.652Z,91.27
2023-05-07T05:51:38.368Z,91.05
2023-05-07T05:54:05.647Z,90.01
2023-05-07T05:56:32.973Z,89.98
2023-05-07T05:58:59.511Z,88.50
2023-05-07T06:01:26.418Z,85.84
2023-05-07T06:03:54.494Z,80.62
2023-05-07T06:06:20.960Z,83.43
2023-05-07T06:08:47.506Z,80.35
2023-05-07T06:11:18.662Z,80.58
2023-05-07T06:13:46.902Z,78.24
2023-05-07T06:16:13.408Z,76.22
2023-05-07T06:18:40.093Z,76.57
2023-05-07T06:21:07.298Z,75.92
2023-05-07T06:23:35.216Z,75.89
2023-05-07T06:26:02.849Z,75.40
2023-05-07T06:28:38.128Z,70.88
2023-05-07T06:31:12.812Z,66.14
2023-05-07T06:33:40.041Z,66.76
2023-05-07T06:36:07.086Z,67.38
2023-05-07T06:38:34.920Z,65.51
2023-05-07T06:41:01.485Z,62.65
2023-05-07T06:43:31.213Z,61.42
2023-05-07T06:46:32.965Z,61.22
2023-05-07T06:48:59.694Z,58.72
2023-05-07T06:51:27.919Z,61.75
2023-05-07T06:53:55.479Z,60.04
2023-05-07T06:56:22.110Z,55.82
2023-05-07T06:58:48.839Z,58.87
2023-05-07T07:01:16.327Z,55.21
2023-05-07T07:03:44.452Z,58.10
2023-05-07T07:06:11.168Z,54.79
2023-05-07T07:08:39.756Z,53.05
2023-05-07T07:11:07.085Z,50.22
2023-05-07T07:13:33.591Z,50.02
2023-05-07T07:16:01.302Z,50.50
2023-05-07T07:18:28.004Z,49.28
2023-05-07T07:20:54.685Z,50.37
2023-05-07T07:23:21.205Z,50.80
2023-05-07T07:25:47.861Z,52.64
2023-05-07T07:28:14.396Z,50.79
2023-05-07T07:30:41.003Z,48.21
2023-05-07T07:33:07.762Z,48.69
2023-05-07T07:35:37.032Z,48.07
2023-05-07T07:38:05.694Z,46.77
2023-05-07T07:40:32.599Z,48.75
2023-05-07T07:42:59.700Z,47.60
2023-05-07T07:45:26.265Z,47.67
2023-05-07T07:47:52.769Z,45.10
2023-05-07T07:50:28.758Z,47.48
2023-05-07T07:53:03.259Z,46.25
2023-05-07T07:55:29.891Z,46.46
2023-05-07T07:57:56.422Z,48.79
2023-05-07T08:00:23.998Z,48.58
2023-05-07T08:02:54.638Z,46.07
2023-05-07T08:05:28.348Z,42.76
2023-05-07T08:07:55.184Z,46.45
2023-05-07T08:10:26.681Z,45.63
2023-05-07T08:12:59.250Z,47.75
2023-05-07T08:15:25.990Z,45.58
2023-05-07T08:17:52.723Z,44.74
2023-05-07T08:20:19.457Z,43.98
2023-05-07T08:22:46.476Z,45.44
2023-05-07T08:25:13.453Z,46.12
2023-05-07T08:27:40.026Z,45.31
2023-05-07T08:30:07.047Z,45.17
2023-05-07T08:32:33.722Z,44.37
2023-05-07T08:35:00.976Z,44.60
2023-05-07T08:37:27.613Z,42.86
2023-05-07T08:39:54.455Z,43.10
2023-05-07T08:42:24.669Z,40.86
2023-05-07T08:44:54.105Z,43.12
2023-05-07T08:47:23.706Z,41.35
2023-05-07T08:49:52.379Z,40.82
2023-05-07T08:52:20.987Z,44.05
2023-05-07T08:54:48.831Z,42.43
2023-05-07T08:57:16.240Z,40.66
2023-05-07T08:59:43.880Z,39.49
2023-05-07T09:02:12.352Z,40.34
2023-05-07T09:04:39.833Z,43.06
2023-05-07T09:07:06.622Z,45.02
2023-05-07T09:09:38.134Z,45.59
2023-05-07T09:12:05.890Z,41.12
2023-05-07T09:14:34.499Z,41.84
2023-05-07T09:17:02.523Z,43.50
2023-05-07T09:19:29.540Z,42.33
2023-05-07T09:22:02.196Z,42.03
2023-05-07T09:24:35.976Z,42.36
2023-05-07T09:27:04.255Z,40.14
2023-05-07T09:29:36.063Z,40.73
2023-05-07T09:32:07.965Z,41.30
2023-05-07T09:34:35.845Z,42.10
2023-05-07T09:37:06.092Z,40.33
2023-05-07T09:39:42.707Z,41.27
2023-05-07T09:42:10.515Z,38.61
2023-05-07T09:44:37.287Z,40.88
2023-05-07T09:47:07.505Z,43.46
2023-05-07T09:49:40.367Z,42.56
2023-05-07T09:52:11.585Z,40.41
2023-05-07T09:54:44.399Z,40.02
2023-05-07T09:57:12.740Z,39.92
2023-05-07T09:59:43.258Z,38.40
2023-05-07T10:02:13.112Z,40.31
2023-05-07T10:04:47.216Z,42.08
2023-05-07T10:07:16.284Z,42.08
2023-05-07T10:09:44.755Z,41.43
2023-05-07T10:12:19.793Z,39.43
2023-05-07T10:14:47.004Z,44.08
2023-05-07T10:17:14.694Z,41.61
2023-05-07T10:19:43.558Z,38.36
2023-05-07T10:22:10.301Z,40.98
2023-05-07T10:24:42.419Z,36.47
2023-05-07T10:27:15.425Z,38.09
2023-05-07T10:30:07.916Z,38.51
2023-05-07T10:32:41.844Z,37.03
2023-05-07T10:35:21.268Z,35.82
2023-05-07T10:37:49.577Z,39.49
2023-05-07T10:40:18.654Z,41.19
2023-05-07T10:42:55.789Z,40.18
2023-05-07T10:45:23.269Z,39.35
2023-05-07T10:48:27.319Z,36.54
2023-05-07T10:51:19.733Z,35.98
2023-05-07T10:53:46.806Z,35.63
2023-05-07T10:56:19.521Z,34.86
2023-05-07T10:58:52.270Z,38.67
2023-05-07T11:01:45.663Z,36.77
2023-05-07T11:04:27.186Z,35.12
2023-05-07T11:07:09.565Z,36.29
2023-05-07T11:09:53.794Z,38.16
2023-05-07T11:12:41.858Z,37.15
2023-05-07T11:15:16.709Z,35.95
2023-05-07T11:17:59.899Z,35.44
2023-05-07T11:20:58.097Z,34.29
2023-05-07T11:23:50.596Z,37.79
2023-05-07T11:26:26.673Z,40.29
2023-05-07T11:28:54.365Z,39.66
2023-05-07T11:31:24.487Z,39.49
2023-05-07T11:33:53.033Z,39.06
2023-05-07T11:36:21.850Z,38.28
2023-05-07T11:38:50.910Z,40.91
2023-05-07T11:41:18.446Z,41.13
2023-05-07T11:43:58.073Z,40.13
2023-05-07T11:46:24.731Z,40.45
2023-05-07T11:48:51.500Z,41.40
2023-05-07T11:51:22.018Z,39.71
2023-05-07T11:53:48.723Z,37.67
2023-05-07T11:56:15.956Z,38.44
2023-05-07T11:58:43.106Z,38.87
2023-05-07T12:01:10.532Z,38.44
2023-05-07T12:03:38.739Z,39.89
2023-05-07T12:06:08.492Z,41.21
2023-05-07T12:08:37.140Z,41.62
2023-05-07T12:11:03.620Z,41.81
2023-05-07T12:13:30.080Z,41.13
2023-05-07T12:15:57.122Z,41.52
2023-05-07T12:18:24.017Z,39.98
2023-05-07T12:20:51.296Z,41.18
2023-05-07T12:23:17.978Z,41.10
2023-05-07T12:25:47.962Z,39.85
2023-05-07T12:28:16.614Z,38.48
2023-05-07T12:30:43.973Z,40.50
2023-05-07T12:33:11.031Z,43.19
2023-05-07T12:35:40.553Z,45.44
2023-05-07T12:38:11.734Z,44.14
2023-05-07T12:40:39.133Z,45.12
2023-05-07T12:43:05.898Z,43.27
2023-05-07T12:45:32.493Z,44.17
2023-05-07T12:48:02.589Z,45.40
2023-05-07T12:50:32.172Z,45.58
2023-05-07T12:52:58.706Z,46.07
2023-05-07T12:55:25.133Z,45.18
2023-05-07T12:57:52.431Z,45.33
2023-05-07T13:00:19.157Z,45.94
2023-05-07T13:02:46.486Z,45.83
2023-05-07T13:05:13.515Z,46.23
2023-05-07T13:07:40.347Z,47.31
2023-05-07T13:10:07.177Z,46.82
2023-05-07T13:12:33.754Z,46.71
2023-05-07T13:15:00.358Z,47.70
2023-05-07T13:17:26.915Z,48.47
2023-05-07T13:19:53.499Z,48.40
2023-05-07T13:22:19.957Z,51.85
2023-05-07T13:24:46.616Z,53.02
2023-05-07T13:27:13.102Z,58.83
2023-05-07T13:29:39.541Z,66.33
2023-05-07T13:32:06.078Z,66.43
2023-05-07T13:34:32.716Z,72.11
2023-05-07T13:36:59.205Z,72.48
2023-05-07T13:39:25.757Z,82.17
2023-05-07T13:41:52.244Z,82.50
2023-05-07T13:44:18.759Z,87.07
2023-05-07T13:46:45.231Z,88.18
2023-05-07T13:49:12.235Z,90.63
2023-05-07T13:51:38.887Z,91.20
2023-05-07T13:54:05.769Z,89.40
2023-05-07T13:56:33.361Z,90.27
2023-05-07T13:59:00.980Z,92.56
2023-05-07T14:01:28.237Z,94.55
2023-05-07T14:03:54.964Z,87.87
2023-05-07T14:06:21.532Z,89.98
2023-05-07T14:08:49.018Z,94.92
2023-05-07T14:11:15.528Z,97.00
2023-05-07T14:13:42.023Z,98.16
2023-05-07T14:16:08.947Z,99.13
2023-05-07T14:18:36.394Z,99.85
2023-05-07T14:21:02.871Z,97.71
2023-05-07T14:23:29.412Z,100.00
2023-05-07T14:25:57.548Z,100.00
2023-05-07T14:28:24.644Z,100.00
2023-05-07T14:30:51.318Z,100.00
2023-05-07T14:33:18.401Z,100.00
2023-05-07T14:35:49.454Z,100.00
2023-05-07T14:38:16.621Z,99.66
2023-05-07T14:40:43.342Z,100.00
2023-05-07T14:43:09.825Z,100.00
2023-05-07T14:45:36.321Z,99.34
2023-05-07T14:48:03.263Z,97.88
2023-05-07T14:50:29.793Z,98.50
2023-05-07T14:52:56.380Z,98.55
2023-05-07T14:55:22.894Z,94.63
2023-05-07T14:57:49.813Z,98.04
2023-05-07T15:00:16.433Z,97.02
2023-05-07T15:02:43.009Z,96.84
2023-05-07T15:05:09.834Z,93.37
2023-05-07T15:07:36.485Z,95.53
2023-05-07T15:10:03.099Z,97.42
2023-05-07T15:12:29.607Z,99.23
2023-05-07T15:14:56.079Z,99.17
2023-05-07T15:17:22.654Z,92.81
2023-05-07T15:19:49.205Z,94.25
2023-05-07T15:22:15.717Z,95.26
2023-05-07T15:24:42.225Z,94.01
2023-05-07T15:27:08.734Z,90.73
2023-05-07T15:29:35.217Z,89.06
2023-05-07T15:32:02.665Z,90.74
2023-05-07T15:34:29.133Z,89.62
2023-05-07T15:36:57.695Z,87.98
2023-05-07T15:39:25.075Z,88.15
2023-05-07T15:41:51.706Z,89.27
2023-05-07T15:44:18.251Z,89.11
2023-05-07T15:46:44.746Z,91.89
2023-05-07T15:49:11.578Z,88.94
2023-05-07T15:51:38.104Z,88.26
2023-05-07T15:54:04.689Z,87.39
2023-05-07T15:56:33.866Z,85.74
2023-05-07T15:59:00.702Z,86.04
2023-05-07T16:01:27.224Z,86.00
2023-05-07T16:03:53.984Z,88.43
2023-05-07T16:06:20.611Z,88.94
2023-05-07T16:08:47.358Z,88.48
2023-05-07T16:11:13.900Z,86.95
2023-05-07T16:13:40.356Z,87.16
2023-05-07T16:16:06.955Z,85.87
2023-05-07T16:18:33.587Z,86.39
2023-05-07T16:21:00.953Z,88.13
2023-05-07T16:23:27.606Z,91.01
2023-05-07T16:25:54.109Z,86.53
2023-05-07T16:28:21.091Z,85.29
2023-05-07T16:30:48.104Z,85.93
2023-05-07T16:33:14.607Z,89.81
2023-05-07T16:35:41.179Z,93.75
2023-05-07T16:38:11.190Z,96.87
2023-05-07T16:40:38.881Z,100.00
2023-05-07T16:43:05.540Z,100.00
2023-05-07T16:45:31.953Z,100.00
2023-05-07T16:47:58.727Z,100.00
2023-05-07T16:50:25.307Z,100.00
2023-05-07T16:52:51.779Z,100.00
2023-05-07T16:55:18.348Z,100.00
2023-05-07T16:57:44.854Z,100.00
2023-05-07T17:00:12.399Z,100.00
2023-05-07T17:02:38.912Z,100.00
2023-05-07T17:05:06.442Z,100.00
2023-05-07T17:07:32.979Z,100.00
2023-05-07T17:09:59.465Z,100.00
2023-05-07T17:12:27.210Z,100.00
2023-05-07T17:14:53.809Z,100.00
2023-05-07T17:17:20.251Z,100.00
2023-05-07T17:19:46.703Z,100.00
2023-05-07T17:22:13.203Z,100.00
2023-05-07T17:24:39.618Z,100.00
2023-05-07T17:27:06.057Z,100.00
2023-05-07T17:29:32.538Z,100.00
2023-05-07T17:31:59.038Z,100.00
2023-05-07T17:34:25.636Z,100.00
2023-05-07T17:36:52.101Z,100.00
2023-05-07T17:39:18.581Z,100.00
2023-05-07T17:41:45.058Z,100.00
2023-05-07T17:44:11.554Z,100.00
2023-05-07T17:46:37.979Z,100.00
2023-05-07T17:49:04.409Z,100.00
2023-05-07T17:51:36.250Z,100.00
2023-05-07T17:54:08.919Z,100.00
2023-05-07T17:56:35.406Z,100.00
2023-05-07T17:59:02.186Z,100.00
2023-05-07T18:01:28.904Z,100.00
2023-05-07T18:03:55.787Z,100.00
2023-05-07T18:06:23.240Z,100.00
2023-05-07T18:08:49.732Z,100.00
2023-05-07T18:11:16.343Z,100.00
2023-05-07T18:13:42.805Z,100.00
2023-05-07T18:16:09.396Z,100.00
2023-05-07T18:18:36.005Z,100.00
2023-05-07T18:21:02.575Z,100.00
2023-05-07T18:23:29.342Z,100.00
2023-05-07T18:25:56.055Z,100.00
2023-05-07T18:28:22.570Z,100.00
2023-05-07T18:30:49.011Z,100.00
2023-05-07T18:33:15.516Z,100.00
2023-05-07T18:35:41.956Z,100.00
2023-05-07T18:38:10.059Z,100.00
2023-05-07T18:40:36.533Z,100.00
2023-05-07T18:43:06.785Z,100.00
2023-05-07T18:45:34.285Z,100.00
2023-05-07T18:48:01.334Z,100.00
2023-05-07T18:50:28.001Z,100.00
2023-05-07T18:52:54.436Z,100.00
2023-05-07T18:55:22.161Z,100.00
2023-05-07T18:57:49.145Z,100.00
2023-05-07T19:00:15.917Z,100.00
2023-05-07T19:02:42.638Z,100.00
2023-05-07T19:05:09.323Z,100.00
2023-05-07T19:07:35.767Z,100.00
2023-05-07T19:10:05.547Z,100.00
2023-05-07T19:12:45.972Z,100.00
2023-05-07T19:15:12.518Z,100.00
2023-05-07T19:17:39.080Z,100.00
2023-05-07T19:22:32.331Z,100.00
2023-05-07T19:24:58.828Z,100.00
2023-05-07T19:27:25.346Z,100.00
2023-05-07T19:29:51.799Z,100.00
2023-05-07T19:32:20.099Z,100.00
2023-05-07T19:34:46.735Z,100.00
2023-05-07T19:37:13.219Z,100.00
2023-05-07T19:39:40.640Z,100.00
2023-05-07T19:42:07.115Z,100.00
2023-05-07T19:44:33.584Z,100.00
2023-05-07T19:47:00.268Z,100.00
2023-05-07T19:49:26.771Z,100.00
2023-05-07T19:51:54.237Z,100.00
2023-05-07T19:54:21.017Z,100.00
2023-05-07T19:56:47.495Z,100.00
2023-05-07T19:59:14.095Z,100.00
2023-05-07T20:01:40.710Z,100.00
2023-05-07T20:04:07.345Z,100.00
2023-05-07T20:06:33.957Z,100.00
2023-05-07T20:09:00.574Z,100.00
2023-05-07T20:11:28.408Z,100.00
2023-05-07T20:13:54.872Z,100.00
2023-05-07T20:16:21.383Z,100.00
2023-05-07T20:18:47.939Z,100.00
2023-05-07T20:21:14.706Z,100.00
2023-05-07T20:23:41.141Z,100.00
2023-05-07T20:26:07.808Z,100.00
2023-05-07T20:28:34.332Z,100.00
2023-05-07T20:31:00.826Z,100.00
2023-05-07T20:33:27.392Z,100.00
2023-05-07T20:35:53.990Z,100.00
2023-05-07T20:38:20.544Z,100.00
2023-05-07T20:40:47.082Z,100.00
2023-05-07T20:43:13.559Z,100.00
2023-05-07T20:45:40.108Z,100.00
2023-05-07T20:48:06.785Z,100.00
2023-05-07T20:50:33.707Z,100.00
2023-05-07T20:53:00.945Z,100.00
2023-05-07T20:55:27.504Z,100.00
2023-05-07T20:57:54.029Z,100.00
2023-05-07T21:00:20.661Z,100.00
2023-05-07T21:02:47.141Z,100.00
2023-05-07T21:05:13.652Z,100.00
2023-05-07T21:07:40.243Z,100.00
2023-05-07T21:10:06.947Z,100.00
2023-05-07T21:12:33.775Z,100.00
2023-05-07T21:15:00.314Z,100.00
2023-05-07T21:17:29.213Z,100.00
2023-05-07T21:19:56.164Z,100.00
2023-05-07T21:22:22.964Z,100.00
2023-05-07T21:24:49.952Z,100.00
2023-05-07T21:27:16.606Z,100.00
2023-05-07T21:29:43.110Z,100.00
2023-05-07T21:32:09.659Z,100.00
2023-05-07T21:34:36.230Z,100.00
2023-05-07T21:37:02.862Z,100.00
2023-05-07T21:39:29.319Z,100.00
2023-05-07T21:41:56.987Z,100.00
2023-05-07T21:44:23.526Z,100.00
2023-05-07T21:46:49.992Z,100.00
2023-05-07T21:49:16.832Z,100.00
2023-05-07T21:51:43.333Z,100.00
2023-05-07T21:54:09.796Z,100.00
2023-05-07T21:56:36.361Z,100.00
2023-05-07T21:59:02.852Z,100.00
2023-05-07T22:01:29.361Z,100.00
2023-05-07T22:03:56.428Z,100.00
2023-05-07T22:06:22.992Z,100.00
2023-05-07T22:08:49.729Z,100.00
2023-05-07T22:11:16.288Z,100.00
2023-05-07T22:13:42.976Z,100.00
2023-05-07T22:16:09.471Z,100.00
2023-05-07T22:18:35.977Z,100.00
2023-05-07T22:21:02.459Z,100.00
2023-05-07T22:23:29.035Z,100.00
2023-05-07T22:25:55.654Z,100.00
2023-05-07T22:28:22.102Z,100.00
2023-05-07T22:30:48.619Z,100.00
2023-05-07T22:33:15.136Z,100.00
2023-05-07T22:35:42.003Z,100.00
2023-05-07T22:38:08.555Z,100.00
2023-05-07T22:40:35.341Z,100.00
2023-05-07T22:43:01.965Z,100.00
2023-05-07T22:45:28.456Z,100.00
2023-05-07T22:47:55.000Z,100.00
2023-05-07T22:50:21.591Z,100.00
2023-05-07T22:52:48.780Z,100.00
2023-05-07T22:55:15.310Z,100.00
2023-05-07T22:57:41.808Z,100.00
2023-05-07T23:00:09.659Z,100.00
2023-05-07T23:02:36.414Z,100.00
2023-05-07T23:05:03.313Z,100.00
2023-05-07T23:07:29.760Z,100.00
2023-05-07T23:09:56.292Z,100.00
2023-05-07T23:12:22.768Z,100.00
2023-05-07T23:14:49.652Z,100.00
2023-05-07T23:17:16.132Z,100.00
2023-05-07T23:19:42.955Z,100.00
2023-05-07T23:22:10.265Z,100.00
2023-05-07T23:24:36.971Z,100.00
2023-05-07T23:27:06.997Z,100.00
2023-05-07T23:29:33.879Z,100.00
2023-05-07T23:32:00.719Z,100.00
2023-05-07T23:34:27.350Z,99.74
2023-05-07T23:36:54.067Z,100.00
2023-05-07T23:39:20.710Z,100.00
2023-05-07T23:41:47.223Z,99.37
2023-05-07T23:44:13.811Z,98.18
2023-05-07T23:46:40.682Z,97.94
2023-05-07T23:49:07.183Z,99.12
2023-05-07T23:51:33.732Z,99.99
2023-05-07T23:54:00.718Z,99.71
2023-05-07T23:56:27.179Z,99.93
2023-05-07T23:58:53.798Z,100.00
